sensor_id;sensor_type;location;lat;lon;timestamp;temperature;humidity
18173;DHT22;9211;48.818;9.312;2023-12-07T00:02:14;4.30;99.90
18173;DHT22;9211;48.818;9.312;2023-12-07T00:04:41;4.20;99.90
18173;DHT22;9211;48.818;9.312;2023-12-07T00:07:08;3.90;99.90
18173;DHT22;9211;48.818;9.312;2023-12-07T00:09:35;4.00;99.90
18173;DHT22;9211;48.818;9.312;2023-12-07T00:12:02;4.10;99.90
18173;DHT22;9211;48.818;9.312;2023-12-07T00:14:29;4.10;99.90
18173;DHT22;9211;48.818;9.312;2023-12-07T00:16:57;4.30;99.90
18173;DHT22;9211;48.818;9.312;2023-12-07T00:19:24;4.10;99.90
18173;DHT22;9211;48.818;9.312;2023-12-07T00:21:50;4.00;99.90
18173;DHT22;9211;48.818;9.312;2023-12-07T00:24:17;4.00;99.90
18173;DHT22;9211;48.818;9.312;2023-12-07T00:26:44;3.90;99.90
18173;DHT22;9211;48.818;9.312;2023-12-07T00:29:10;3.90;99.90
18173;DHT22;9211;48.818;9.312;2023-12-07T00:31:37;3.90;99.90
18173;DHT22;9211;48.818;9.312;2023-12-07T00:34:05;4.60;99.90
18173;DHT22;9211;48.818;9.312;2023-12-07T00:36:35;4.00;99.90
18173;DHT22;9211;48.818;9.312;2023-12-07T00:39:02;4.30;99.90
18173;DHT22;9211;48.818;9.312;2023-12-07T00:41:30;3.80;99.90
18173;DHT22;9211;48.818;9.312;2023-12-07T00:43:57;3.80;99.90
18173;DHT22;9211;48.818;9.312;2023-12-07T00:46:24;3.90;99.90
18173;DHT22;9211;48.818;9.312;2023-12-07T00:48:51;3.90;99.90
18173;DHT22;9211;48.818;9.312;2023-12-07T00:51:19;3.80;99.90
18173;DHT22;9211;48.818;9.312;2023-12-07T00:53:46;3.80;99.90
18173;DHT22;9211;48.818;9.312;2023-12-07T00:56:13;3.80;99.90
18173;DHT22;9211;48.818;9.312;2023-12-07T00:58:40;3.90;99.90
18173;DHT22;9211;48.818;9.312;2023-12-07T01:01:06;3.90;99.90
18173;DHT22;9211;48.818;9.312;2023-12-07T01:03:34;3.90;99.90
18173;DHT22;9211;48.818;9.312;2023-12-07T01:06:00;3.80;99.90
18173;DHT22;9211;48.818;9.312;2023-12-07T01:08:30;4.40;99.90
18173;DHT22;9211;48.818;9.312;2023-12-07T01:10:57;3.90;99.90
18173;DHT22;9211;48.818;9.312;2023-12-07T01:13:24;4.00;99.90
18173;DHT22;9211;48.818;9.312;2023-12-07T01:15:51;4.30;99.90
18173;DHT22;9211;48.818;9.312;2023-12-07T01:18:18;4.00;99.90
18173;DHT22;9211;48.818;9.312;2023-12-07T01:20:47;4.00;99.90
18173;DHT22;9211;48.818;9.312;2023-12-07T01:23:15;3.90;99.90
18173;DHT22;9211;48.818;9.312;2023-12-07T01:25:43;3.90;99.90
18173;DHT22;9211;48.818;9.312;2023-12-07T01:28:10;3.90;99.90
18173;DHT22;9211;48.818;9.312;2023-12-07T01:30:37;4.20;99.90
18173;DHT22;9211;48.818;9.312;2023-12-07T01:33:03;4.00;99.90
18173;DHT22;9211;48.818;9.312;2023-12-07T01:35:30;4.10;99.90
18173;DHT22;9211;48.818;9.312;2023-12-07T01:37:57;4.00;99.90
18173;DHT22;9211;48.818;9.312;2023-12-07T01:40:24;4.20;99.90
18173;DHT22;9211;48.818;9.312;2023-12-07T01:42:53;4.10;99.90
18173;DHT22;9211;48.818;9.312;2023-12-07T01:45:20;4.10;99.90
18173;DHT22;9211;48.818;9.312;2023-12-07T01:47:49;4.00;99.90
18173;DHT22;9211;48.818;9.312;2023-12-07T01:50:17;4.20;99.90
18173;DHT22;9211;48.818;9.312;2023-12-07T01:52:51;4.10;99.90
18173;DHT22;9211;48.818;9.312;2023-12-07T01:55:19;4.30;99.90
18173;DHT22;9211;48.818;9.312;2023-12-07T01:57:46;4.10;99.90
18173;DHT22;9211;48.818;9.312;2023-12-07T02:00:16;4.20;99.90
18173;DHT22;9211;48.818;9.312;2023-12-07T02:02:44;4.20;99.90
18173;DHT22;9211;48.818;9.312;2023-12-07T02:05:13;4.10;99.90
18173;DHT22;9211;48.818;9.312;2023-12-07T02:07:41;4.10;99.90
18173;DHT22;9211;48.818;9.312;2023-12-07T02:10:08;4.00;99.90
18173;DHT22;9211;48.818;9.312;2023-12-07T02:12:35;4.00;99.90
18173;DHT22;9211;48.818;9.312;2023-12-07T02:15:03;4.00;99.90
18173;DHT22;9211;48.818;9.312;2023-12-07T02:17:35;4.10;99.90
18173;DHT22;9211;48.818;9.312;2023-12-07T02:20:10;4.30;99.90
18173;DHT22;9211;48.818;9.312;2023-12-07T02:22:41;4.10;99.90
18173;DHT22;9211;48.818;9.312;2023-12-07T02:25:10;4.20;99.90
18173;DHT22;9211;48.818;9.312;2023-12-07T02:27:39;4.10;99.90
18173;DHT22;9211;48.818;9.312;2023-12-07T02:30:08;4.10;99.90
18173;DHT22;9211;48.818;9.312;2023-12-07T02:32:36;4.00;99.90
18173;DHT22;9211;48.818;9.312;2023-12-07T02:35:04;4.00;99.90
18173;DHT22;9211;48.818;9.312;2023-12-07T02:37:33;4.00;99.90
18173;DHT22;9211;48.818;9.312;2023-12-07T02:40:04;3.90;99.90
18173;DHT22;9211;48.818;9.312;2023-12-07T02:42:36;4.00;99.90
18173;DHT22;9211;48.818;9.312;2023-12-07T02:45:06;3.90;99.90
18173;DHT22;9211;48.818;9.312;2023-12-07T02:47:33;3.90;99.90
18173;DHT22;9211;48.818;9.312;2023-12-07T02:50:01;3.80;99.90
18173;DHT22;9211;48.818;9.312;2023-12-07T02:52:28;3.80;99.90
18173;DHT22;9211;48.818;9.312;2023-12-07T02:54:54;4.00;99.90
18173;DHT22;9211;48.818;9.312;2023-12-07T02:57:21;3.70;99.90
18173;DHT22;9211;48.818;9.312;2023-12-07T02:59:48;4.40;99.90
18173;DHT22;9211;48.818;9.312;2023-12-07T03:02:16;4.00;99.90
18173;DHT22;9211;48.818;9.312;2023-12-07T03:04:43;4.40;99.90
18173;DHT22;9211;48.818;9.312;2023-12-07T03:07:10;3.70;99.90
18173;DHT22;9211;48.818;9.312;2023-12-07T03:09:37;3.70;99.90
18173;DHT22;9211;48.818;9.312;2023-12-07T03:12:05;3.60;99.90
18173;DHT22;9211;48.818;9.312;2023-12-07T03:14:32;3.60;99.90
18173;DHT22;9211;48.818;9.312;2023-12-07T03:16:59;3.90;99.90
18173;DHT22;9211;48.818;9.312;2023-12-07T03:19:27;4.50;99.90
18173;DHT22;9211;48.818;9.312;2023-12-07T03:21:54;3.40;99.90
18173;DHT22;9211;48.818;9.312;2023-12-07T03:24:21;3.40;99.90
18173;DHT22;9211;48.818;9.312;2023-12-07T03:26:48;3.30;99.90
18173;DHT22;9211;48.818;9.312;2023-12-07T03:29:15;3.30;99.90
18173;DHT22;9211;48.818;9.312;2023-12-07T03:31:42;3.10;99.90
18173;DHT22;9211;48.818;9.312;2023-12-07T03:34:09;3.00;99.90
18173;DHT22;9211;48.818;9.312;2023-12-07T03:36:39;3.00;99.90
18173;DHT22;9211;48.818;9.312;2023-12-07T03:39:06;2.90;99.90
18173;DHT22;9211;48.818;9.312;2023-12-07T03:41:33;3.20;99.90
18173;DHT22;9211;48.818;9.312;2023-12-07T03:44:00;1.20;99.90
18173;DHT22;9211;48.818;9.312;2023-12-07T03:46:27;2.80;99.90
18173;DHT22;9211;48.818;9.312;2023-12-07T03:48:54;2.80;99.90
18173;DHT22;9211;48.818;9.312;2023-12-07T03:51:21;2.70;99.90
18173;DHT22;9211;48.818;9.312;2023-12-07T03:53:49;2.70;99.90
18173;DHT22;9211;48.818;9.312;2023-12-07T03:56:23;2.50;99.90
18173;DHT22;9211;48.818;9.312;2023-12-07T03:58:50;2.50;99.90
18173;DHT22;9211;48.818;9.312;2023-12-07T04:01:17;2.50;99.90
18173;DHT22;9211;48.818;9.312;2023-12-07T04:03:44;2.60;99.90
18173;DHT22;9211;48.818;9.312;2023-12-07T04:06:12;2.60;99.90
18173;DHT22;9211;48.818;9.312;2023-12-07T04:08:39;3.40;99.90
18173;DHT22;9211;48.818;9.312;2023-12-07T04:11:07;2.40;99.90
18173;DHT22;9211;48.818;9.312;2023-12-07T04:13:34;2.40;99.90
18173;DHT22;9211;48.818;9.312;2023-12-07T04:16:01;2.40;99.90
18173;DHT22;9211;48.818;9.312;2023-12-07T04:18:29;2.30;99.90
18173;DHT22;9211;48.818;9.312;2023-12-07T04:20:56;2.30;99.90
18173;DHT22;9211;48.818;9.312;2023-12-07T04:23:22;2.40;99.90
18173;DHT22;9211;48.818;9.312;2023-12-07T04:25:49;2.60;99.90
18173;DHT22;9211;48.818;9.312;2023-12-07T04:28:18;2.40;99.90
18173;DHT22;9211;48.818;9.312;2023-12-07T04:30:45;2.40;99.90
18173;DHT22;9211;48.818;9.312;2023-12-07T04:33:12;2.30;99.90
18173;DHT22;9211;48.818;9.312;2023-12-07T04:35:39;2.20;99.90
18173;DHT22;9211;48.818;9.312;2023-12-07T04:38:06;2.80;99.90
18173;DHT22;9211;48.818;9.312;2023-12-07T04:40:32;2.20;99.90
18173;DHT22;9211;48.818;9.312;2023-12-07T04:42:59;2.20;99.90
18173;DHT22;9211;48.818;9.312;2023-12-07T04:45:28;2.20;99.90
18173;DHT22;9211;48.818;9.312;2023-12-07T04:47:54;2.10;99.90
18173;DHT22;9211;48.818;9.312;2023-12-07T04:50:22;2.10;99.90
18173;DHT22;9211;48.818;9.312;2023-12-07T04:52:49;2.10;99.90
18173;DHT22;9211;48.818;9.312;2023-12-07T04:55:15;2.90;99.90
18173;DHT22;9211;48.818;9.312;2023-12-07T04:57:42;3.40;99.90
18173;DHT22;9211;48.818;9.312;2023-12-07T05:00:10;2.10;99.90
18173;DHT22;9211;48.818;9.312;2023-12-07T05:02:40;2.00;99.90
18173;DHT22;9211;48.818;9.312;2023-12-07T05:05:07;2.10;99.90
18173;DHT22;9211;48.818;9.312;2023-12-07T05:07:35;1.90;99.90
18173;DHT22;9211;48.818;9.312;2023-12-07T05:10:03;1.80;99.90
18173;DHT22;9211;48.818;9.312;2023-12-07T05:12:30;1.90;99.90
18173;DHT22;9211;48.818;9.312;2023-12-07T05:14:58;1.90;99.90
18173;DHT22;9211;48.818;9.312;2023-12-07T05:17:25;1.80;99.90
18173;DHT22;9211;48.818;9.312;2023-12-07T05:19:53;1.80;99.90
18173;DHT22;9211;48.818;9.312;2023-12-07T05:22:20;1.70;99.90
18173;DHT22;9211;48.818;9.312;2023-12-07T05:24:47;1.70;99.90
18173;DHT22;9211;48.818;9.312;2023-12-07T05:27:15;1.70;99.90
18173;DHT22;9211;48.818;9.312;2023-12-07T05:29:43;2.60;99.90
18173;DHT22;9211;48.818;9.312;2023-12-07T05:32:10;1.70;99.90
18173;DHT22;9211;48.818;9.312;2023-12-07T05:34:37;1.50;99.90
18173;DHT22;9211;48.818;9.312;2023-12-07T05:37:05;1.60;99.90
18173;DHT22;9211;48.818;9.312;2023-12-07T05:39:32;1.70;99.90
18173;DHT22;9211;48.818;9.312;2023-12-07T05:41:59;1.70;99.90
18173;DHT22;9211;48.818;9.312;2023-12-07T05:44:25;2.10;99.90
18173;DHT22;9211;48.818;9.312;2023-12-07T05:46:52;1.70;99.90
18173;DHT22;9211;48.818;9.312;2023-12-07T05:49:20;1.70;99.90
18173;DHT22;9211;48.818;9.312;2023-12-07T05:51:48;1.70;99.90
18173;DHT22;9211;48.818;9.312;2023-12-07T05:54:17;1.70;99.90
18173;DHT22;9211;48.818;9.312;2023-12-07T05:56:43;1.90;99.90
18173;DHT22;9211;48.818;9.312;2023-12-07T05:59:12;1.70;99.90
18173;DHT22;9211;48.818;9.312;2023-12-07T06:01:39;1.70;99.90
18173;DHT22;9211;48.818;9.312;2023-12-07T06:04:08;1.80;99.90
18173;DHT22;9211;48.818;9.312;2023-12-07T06:06:35;2.20;99.90
18173;DHT22;9211;48.818;9.312;2023-12-07T06:09:02;1.70;99.90
18173;DHT22;9211;48.818;9.312;2023-12-07T06:11:32;1.70;99.90
18173;DHT22;9211;48.818;9.312;2023-12-07T06:13:59;1.70;99.90
18173;DHT22;9211;48.818;9.312;2023-12-07T06:16:26;1.70;99.90
18173;DHT22;9211;48.818;9.312;2023-12-07T06:18:55;1.70;99.90
18173;DHT22;9211;48.818;9.312;2023-12-07T06:21:22;1.70;99.90
18173;DHT22;9211;48.818;9.312;2023-12-07T06:23:51;1.70;99.90
18173;DHT22;9211;48.818;9.312;2023-12-07T06:26:18;1.80;99.90
18173;DHT22;9211;48.818;9.312;2023-12-07T06:28:46;1.90;99.90
18173;DHT22;9211;48.818;9.312;2023-12-07T06:31:13;1.80;99.90
18173;DHT22;9211;48.818;9.312;2023-12-07T06:33:41;1.80;99.90
18173;DHT22;9211;48.818;9.312;2023-12-07T06:36:09;1.80;99.90
18173;DHT22;9211;48.818;9.312;2023-12-07T06:38:36;1.90;99.90
18173;DHT22;9211;48.818;9.312;2023-12-07T06:41:04;1.80;99.90
18173;DHT22;9211;48.818;9.312;2023-12-07T06:43:31;1.80;99.90
18173;DHT22;9211;48.818;9.312;2023-12-07T06:45:59;1.80;99.90
18173;DHT22;9211;48.818;9.312;2023-12-07T06:48:26;1.60;99.90
18173;DHT22;9211;48.818;9.312;2023-12-07T06:50:53;1.60;99.90
18173;DHT22;9211;48.818;9.312;2023-12-07T06:53:20;1.80;99.90
18173;DHT22;9211;48.818;9.312;2023-12-07T06:55:46;1.90;99.90
18173;DHT22;9211;48.818;9.312;2023-12-07T06:58:13;3.50;99.90
18173;DHT22;9211;48.818;9.312;2023-12-07T07:00:40;2.00;99.90
18173;DHT22;9211;48.818;9.312;2023-12-07T07:03:08;1.90;99.90
18173;DHT22;9211;48.818;9.312;2023-12-07T07:05:35;1.80;99.90
18173;DHT22;9211;48.818;9.312;2023-12-07T07:08:03;1.80;99.90
18173;DHT22;9211;48.818;9.312;2023-12-07T07:10:32;1.70;99.90
18173;DHT22;9211;48.818;9.312;2023-12-07T07:13:00;1.70;99.90
18173;DHT22;9211;48.818;9.312;2023-12-07T07:15:27;1.70;99.90
18173;DHT22;9211;48.818;9.312;2023-12-07T07:17:54;1.60;99.90
18173;DHT22;9211;48.818;9.312;2023-12-07T07:20:22;1.50;99.90
18173;DHT22;9211;48.818;9.312;2023-12-07T07:22:49;1.50;99.90
18173;DHT22;9211;48.818;9.312;2023-12-07T07:25:16;1.50;99.90
18173;DHT22;9211;48.818;9.312;2023-12-07T07:27:45;1.50;99.90
18173;DHT22;9211;48.818;9.312;2023-12-07T07:30:12;1.50;99.90
18173;DHT22;9211;48.818;9.312;2023-12-07T07:32:39;1.50;99.90
18173;DHT22;9211;48.818;9.312;2023-12-07T07:35:07;1.50;99.90
18173;DHT22;9211;48.818;9.312;2023-12-07T07:37:35;1.40;99.90
18173;DHT22;9211;48.818;9.312;2023-12-07T07:40:02;1.40;99.90
18173;DHT22;9211;48.818;9.312;2023-12-07T07:42:32;1.50;99.90
18173;DHT22;9211;48.818;9.312;2023-12-07T07:44:59;1.50;99.90
18173;DHT22;9211;48.818;9.312;2023-12-07T07:47:26;1.60;99.90
18173;DHT22;9211;48.818;9.312;2023-12-07T07:49:53;1.60;99.90
18173;DHT22;9211;48.818;9.312;2023-12-07T07:52:20;1.70;99.90
18173;DHT22;9211;48.818;9.312;2023-12-07T07:54:48;1.70;99.90
18173;DHT22;9211;48.818;9.312;2023-12-07T07:57:15;1.70;99.90
18173;DHT22;9211;48.818;9.312;2023-12-07T07:59:42;1.80;99.90
18173;DHT22;9211;48.818;9.312;2023-12-07T08:02:09;3.60;99.90
18173;DHT22;9211;48.818;9.312;2023-12-07T08:04:36;1.80;99.90
18173;DHT22;9211;48.818;9.312;2023-12-07T08:07:03;1.90;99.90
18173;DHT22;9211;48.818;9.312;2023-12-07T08:09:30;1.90;99.90
18173;DHT22;9211;48.818;9.312;2023-12-07T08:11:58;2.00;99.90
18173;DHT22;9211;48.818;9.312;2023-12-07T08:14:25;1.90;99.90
18173;DHT22;9211;48.818;9.312;2023-12-07T08:16:53;2.10;99.90
18173;DHT22;9211;48.818;9.312;2023-12-07T08:19:21;2.90;99.90
18173;DHT22;9211;48.818;9.312;2023-12-07T08:21:48;2.10;99.90
18173;DHT22;9211;48.818;9.312;2023-12-07T08:24:17;2.20;99.90
18173;DHT22;9211;48.818;9.312;2023-12-07T08:26:44;2.30;99.90
18173;DHT22;9211;48.818;9.312;2023-12-07T08:29:12;2.40;99.90
18173;DHT22;9211;48.818;9.312;2023-12-07T08:31:40;2.40;99.90
18173;DHT22;9211;48.818;9.312;2023-12-07T08:34:07;3.80;99.90
18173;DHT22;9211;48.818;9.312;2023-12-07T08:36:34;2.30;99.90
18173;DHT22;9211;48.818;9.312;2023-12-07T08:39:01;2.60;99.90
18173;DHT22;9211;48.818;9.312;2023-12-07T08:41:28;2.40;99.90
18173;DHT22;9211;48.818;9.312;2023-12-07T08:43:55;2.90;99.90
18173;DHT22;9211;48.818;9.312;2023-12-07T08:46:23;2.30;99.90
18173;DHT22;9211;48.818;9.312;2023-12-07T08:48:50;2.30;99.90
18173;DHT22;9211;48.818;9.312;2023-12-07T08:51:18;2.90;99.90
18173;DHT22;9211;48.818;9.312;2023-12-07T08:53:45;3.20;99.90
18173;DHT22;9211;48.818;9.312;2023-12-07T08:56:11;2.50;99.90
18173;DHT22;9211;48.818;9.312;2023-12-07T08:58:39;2.50;99.90
18173;DHT22;9211;48.818;9.312;2023-12-07T09:01:06;3.00;99.90
18173;DHT22;9211;48.818;9.312;2023-12-07T09:03:35;2.60;99.90
18173;DHT22;9211;48.818;9.312;2023-12-07T09:06:03;2.60;99.90
18173;DHT22;9211;48.818;9.312;2023-12-07T09:08:30;2.50;99.90
18173;DHT22;9211;48.818;9.312;2023-12-07T09:10:57;2.70;99.90
18173;DHT22;9211;48.818;9.312;2023-12-07T09:13:25;2.70;99.90
18173;DHT22;9211;48.818;9.312;2023-12-07T09:15:52;2.70;99.90
18173;DHT22;9211;48.818;9.312;2023-12-07T09:18:19;2.60;99.90
18173;DHT22;9211;48.818;9.312;2023-12-07T09:20:47;2.50;99.90
18173;DHT22;9211;48.818;9.312;2023-12-07T09:23:15;2.50;99.90
18173;DHT22;9211;48.818;9.312;2023-12-07T09:25:42;2.60;99.90
18173;DHT22;9211;48.818;9.312;2023-12-07T09:28:09;2.70;99.90
18173;DHT22;9211;48.818;9.312;2023-12-07T09:30:36;2.80;99.90
18173;DHT22;9211;48.818;9.312;2023-12-07T09:33:03;2.80;99.90
18173;DHT22;9211;48.818;9.312;2023-12-07T09:35:30;2.70;99.90
18173;DHT22;9211;48.818;9.312;2023-12-07T09:37:58;2.80;99.90
18173;DHT22;9211;48.818;9.312;2023-12-07T09:40:25;2.80;99.90
18173;DHT22;9211;48.818;9.312;2023-12-07T09:42:53;3.10;99.90
18173;DHT22;9211;48.818;9.312;2023-12-07T09:45:20;1.40;99.90
18173;DHT22;9211;48.818;9.312;2023-12-07T09:47:49;3.00;99.90
18173;DHT22;9211;48.818;9.312;2023-12-07T09:50:17;3.00;99.90
18173;DHT22;9211;48.818;9.312;2023-12-07T09:52:48;3.70;99.90
18173;DHT22;9211;48.818;9.312;2023-12-07T09:55:18;3.10;99.90
18173;DHT22;9211;48.818;9.312;2023-12-07T09:57:45;3.50;99.90
18173;DHT22;9211;48.818;9.312;2023-12-07T10:00:13;3.30;99.90
18173;DHT22;9211;48.818;9.312;2023-12-07T10:02:41;3.30;99.90
18173;DHT22;9211;48.818;9.312;2023-12-07T10:05:10;3.50;99.90
18173;DHT22;9211;48.818;9.312;2023-12-07T10:07:40;3.50;99.90
18173;DHT22;9211;48.818;9.312;2023-12-07T10:10:08;3.60;99.90
18173;DHT22;9211;48.818;9.312;2023-12-07T10:12:45;3.60;99.90
18173;DHT22;9211;48.818;9.312;2023-12-07T10:15:14;3.70;99.90
18173;DHT22;9211;48.818;9.312;2023-12-07T10:17:46;3.70;99.90
18173;DHT22;9211;48.818;9.312;2023-12-07T10:20:15;3.90;99.90
18173;DHT22;9211;48.818;9.312;2023-12-07T10:22:42;3.90;99.90
18173;DHT22;9211;48.818;9.312;2023-12-07T10:25:10;4.00;99.90
18173;DHT22;9211;48.818;9.312;2023-12-07T10:27:40;4.10;99.90
18173;DHT22;9211;48.818;9.312;2023-12-07T10:30:11;4.10;99.90
18173;DHT22;9211;48.818;9.312;2023-12-07T10:32:39;4.10;99.90
18173;DHT22;9211;48.818;9.312;2023-12-07T10:35:07;4.20;99.90
18173;DHT22;9211;48.818;9.312;2023-12-07T10:37:35;4.30;99.90
18173;DHT22;9211;48.818;9.312;2023-12-07T10:40:04;4.30;99.90
18173;DHT22;9211;48.818;9.312;2023-12-07T10:42:33;4.40;99.90
18173;DHT22;9211;48.818;9.312;2023-12-07T10:45:06;4.40;99.90
18173;DHT22;9211;48.818;9.312;2023-12-07T10:47:37;4.50;99.90
18173;DHT22;9211;48.818;9.312;2023-12-07T10:50:07;4.60;99.90
18173;DHT22;9211;48.818;9.312;2023-12-07T10:52:42;4.60;99.90
18173;DHT22;9211;48.818;9.312;2023-12-07T10:55:15;4.60;99.90
18173;DHT22;9211;48.818;9.312;2023-12-07T10:57:44;4.70;99.90
18173;DHT22;9211;48.818;9.312;2023-12-07T11:00:14;4.80;99.90
18173;DHT22;9211;48.818;9.312;2023-12-07T11:02:42;4.90;99.90
18173;DHT22;9211;48.818;9.312;2023-12-07T11:05:11;5.00;99.90
18173;DHT22;9211;48.818;9.312;2023-12-07T11:07:47;5.00;99.90
18173;DHT22;9211;48.818;9.312;2023-12-07T11:10:21;6.10;99.90
18173;DHT22;9211;48.818;9.312;2023-12-07T11:12:56;5.20;99.90
18173;DHT22;9211;48.818;9.312;2023-12-07T11:15:28;5.30;99.90
18173;DHT22;9211;48.818;9.312;2023-12-07T11:17:56;5.40;99.90
18173;DHT22;9211;48.818;9.312;2023-12-07T11:20:32;5.40;99.90
18173;DHT22;9211;48.818;9.312;2023-12-07T11:23:05;5.30;99.90
18173;DHT22;9211;48.818;9.312;2023-12-07T11:25:33;5.40;99.90
18173;DHT22;9211;48.818;9.312;2023-12-07T11:28:01;5.80;99.90
18173;DHT22;9211;48.818;9.312;2023-12-07T11:30:31;5.60;99.90
18173;DHT22;9211;48.818;9.312;2023-12-07T11:32:59;5.60;99.90
18173;DHT22;9211;48.818;9.312;2023-12-07T11:35:26;5.70;99.90
18173;DHT22;9211;48.818;9.312;2023-12-07T11:38:07;5.80;99.90
18173;DHT22;9211;48.818;9.312;2023-12-07T11:40:38;5.80;99.90
18173;DHT22;9211;48.818;9.312;2023-12-07T11:43:06;5.80;99.90
18173;DHT22;9211;48.818;9.312;2023-12-07T11:45:41;5.90;99.90
18173;DHT22;9211;48.818;9.312;2023-12-07T11:48:13;5.90;99.90
18173;DHT22;9211;48.818;9.312;2023-12-07T11:50:54;6.00;99.90
18173;DHT22;9211;48.818;9.312;2023-12-07T11:53:22;5.90;99.90
18173;DHT22;9211;48.818;9.312;2023-12-07T11:55:50;5.90;99.90
18173;DHT22;9211;48.818;9.312;2023-12-07T11:58:17;5.90;99.90
18173;DHT22;9211;48.818;9.312;2023-12-07T12:00:45;5.80;99.90
18173;DHT22;9211;48.818;9.312;2023-12-07T12:03:13;5.90;99.90
18173;DHT22;9211;48.818;9.312;2023-12-07T12:05:41;5.90;99.90
18173;DHT22;9211;48.818;9.312;2023-12-07T12:08:09;5.90;99.90
18173;DHT22;9211;48.818;9.312;2023-12-07T12:10:36;5.90;99.90
18173;DHT22;9211;48.818;9.312;2023-12-07T12:13:04;5.90;99.90
18173;DHT22;9211;48.818;9.312;2023-12-07T12:15:31;6.00;99.90
18173;DHT22;9211;48.818;9.312;2023-12-07T12:18:00;6.00;99.90
18173;DHT22;9211;48.818;9.312;2023-12-07T12:20:28;6.00;99.90
18173;DHT22;9211;48.818;9.312;2023-12-07T12:22:55;5.00;99.90
18173;DHT22;9211;48.818;9.312;2023-12-07T12:25:23;6.00;99.90
18173;DHT22;9211;48.818;9.312;2023-12-07T12:27:52;6.10;99.90
18173;DHT22;9211;48.818;9.312;2023-12-07T12:30:20;6.20;99.90
18173;DHT22;9211;48.818;9.312;2023-12-07T12:32:49;6.20;99.90
18173;DHT22;9211;48.818;9.312;2023-12-07T12:35:17;6.20;99.90
18173;DHT22;9211;48.818;9.312;2023-12-07T12:37:46;6.20;99.90
18173;DHT22;9211;48.818;9.312;2023-12-07T12:40:15;6.10;99.90
18173;DHT22;9211;48.818;9.312;2023-12-07T12:42:45;6.10;99.90
18173;DHT22;9211;48.818;9.312;2023-12-07T12:45:13;6.10;99.90
18173;DHT22;9211;48.818;9.312;2023-12-07T12:47:41;6.10;99.90
18173;DHT22;9211;48.818;9.312;2023-12-07T12:50:09;6.10;99.90
18173;DHT22;9211;48.818;9.312;2023-12-07T12:52:40;6.20;99.90
18173;DHT22;9211;48.818;9.312;2023-12-07T12:55:08;6.20;99.90
18173;DHT22;9211;48.818;9.312;2023-12-07T12:57:36;6.30;99.90
18173;DHT22;9211;48.818;9.312;2023-12-07T13:00:04;6.30;99.90
18173;DHT22;9211;48.818;9.312;2023-12-07T13:02:33;6.30;99.90
18173;DHT22;9211;48.818;9.312;2023-12-07T13:05:01;6.30;99.90
18173;DHT22;9211;48.818;9.312;2023-12-07T13:07:28;6.30;99.90
18173;DHT22;9211;48.818;9.312;2023-12-07T13:09:56;6.40;99.90
18173;DHT22;9211;48.818;9.312;2023-12-07T13:12:23;6.40;99.90
18173;DHT22;9211;48.818;9.312;2023-12-07T13:14:53;6.40;99.90
18173;DHT22;9211;48.818;9.312;2023-12-07T13:17:20;6.40;99.90
18173;DHT22;9211;48.818;9.312;2023-12-07T13:19:47;6.40;99.90
18173;DHT22;9211;48.818;9.312;2023-12-07T13:22:14;6.60;99.90
18173;DHT22;9211;48.818;9.312;2023-12-07T13:24:42;6.90;99.90
18173;DHT22;9211;48.818;9.312;2023-12-07T13:27:10;6.80;99.90
18173;DHT22;9211;48.818;9.312;2023-12-07T13:29:37;6.80;99.90
18173;DHT22;9211;48.818;9.312;2023-12-07T13:32:04;6.80;99.90
18173;DHT22;9211;48.818;9.312;2023-12-07T13:34:32;6.80;99.90
18173;DHT22;9211;48.818;9.312;2023-12-07T13:36:59;6.70;99.90
18173;DHT22;9211;48.818;9.312;2023-12-07T13:39:26;6.70;99.90
18173;DHT22;9211;48.818;9.312;2023-12-07T13:41:54;6.80;99.90
18173;DHT22;9211;48.818;9.312;2023-12-07T13:44:22;6.80;99.90
18173;DHT22;9211;48.818;9.312;2023-12-07T13:46:50;6.80;99.90
18173;DHT22;9211;48.818;9.312;2023-12-07T13:49:19;6.80;99.90
18173;DHT22;9211;48.818;9.312;2023-12-07T13:51:46;6.80;99.90
18173;DHT22;9211;48.818;9.312;2023-12-07T13:54:13;6.70;99.90
18173;DHT22;9211;48.818;9.312;2023-12-07T13:56:40;6.80;99.90
18173;DHT22;9211;48.818;9.312;2023-12-07T13:59:07;6.90;99.90
18173;DHT22;9211;48.818;9.312;2023-12-07T14:01:37;6.90;99.90
18173;DHT22;9211;48.818;9.312;2023-12-07T14:04:05;6.90;99.90
18173;DHT22;9211;48.818;9.312;2023-12-07T14:06:33;6.90;99.90
18173;DHT22;9211;48.818;9.312;2023-12-07T14:09:00;7.00;99.90
18173;DHT22;9211;48.818;9.312;2023-12-07T14:11:28;7.10;99.90
18173;DHT22;9211;48.818;9.312;2023-12-07T14:13:55;7.20;99.90
18173;DHT22;9211;48.818;9.312;2023-12-07T14:16:22;7.20;99.90
18173;DHT22;9211;48.818;9.312;2023-12-07T14:18:50;7.30;99.90
18173;DHT22;9211;48.818;9.312;2023-12-07T14:21:19;8.80;99.90
18173;DHT22;9211;48.818;9.312;2023-12-07T14:23:47;7.70;99.90
18173;DHT22;9211;48.818;9.312;2023-12-07T14:26:14;7.70;99.90
18173;DHT22;9211;48.818;9.312;2023-12-07T14:28:41;7.90;99.90
18173;DHT22;9211;48.818;9.312;2023-12-07T14:31:08;7.70;99.90
18173;DHT22;9211;48.818;9.312;2023-12-07T14:33:40;7.60;99.90
18173;DHT22;9211;48.818;9.312;2023-12-07T14:36:10;7.60;99.90
18173;DHT22;9211;48.818;9.312;2023-12-07T14:38:38;7.40;99.90
18173;DHT22;9211;48.818;9.312;2023-12-07T14:41:06;7.30;99.90
18173;DHT22;9211;48.818;9.312;2023-12-07T14:43:33;7.10;99.90
18173;DHT22;9211;48.818;9.312;2023-12-07T14:46:00;7.00;99.90
18173;DHT22;9211;48.818;9.312;2023-12-07T14:48:28;7.00;99.90
18173;DHT22;9211;48.818;9.312;2023-12-07T14:50:55;6.90;99.90
18173;DHT22;9211;48.818;9.312;2023-12-07T14:53:24;6.70;99.90
18173;DHT22;9211;48.818;9.312;2023-12-07T14:55:52;6.60;99.90
18173;DHT22;9211;48.818;9.312;2023-12-07T14:58:19;6.40;99.90
18173;DHT22;9211;48.818;9.312;2023-12-07T15:00:46;6.30;99.90
18173;DHT22;9211;48.818;9.312;2023-12-07T15:03:13;6.20;99.90
18173;DHT22;9211;48.818;9.312;2023-12-07T15:05:40;6.10;99.90
18173;DHT22;9211;48.818;9.312;2023-12-07T15:08:07;6.10;99.90
18173;DHT22;9211;48.818;9.312;2023-12-07T15:10:36;6.00;99.90
18173;DHT22;9211;48.818;9.312;2023-12-07T15:13:03;6.20;99.90
18173;DHT22;9211;48.818;9.312;2023-12-07T15:15:30;5.80;99.90
18173;DHT22;9211;48.818;9.312;2023-12-07T15:17:58;5.70;99.90
18173;DHT22;9211;48.818;9.312;2023-12-07T15:20:28;5.60;99.90
18173;DHT22;9211;48.818;9.312;2023-12-07T15:22:55;5.40;99.90
18173;DHT22;9211;48.818;9.312;2023-12-07T15:25:22;5.40;99.90
18173;DHT22;9211;48.818;9.312;2023-12-07T15:27:53;5.40;99.90
18173;DHT22;9211;48.818;9.312;2023-12-07T15:30:20;6.90;99.90
18173;DHT22;9211;48.818;9.312;2023-12-07T15:32:49;5.20;99.90
18173;DHT22;9211;48.818;9.312;2023-12-07T15:35:16;5.10;99.90
18173;DHT22;9211;48.818;9.312;2023-12-07T15:37:43;5.00;99.90
18173;DHT22;9211;48.818;9.312;2023-12-07T15:40:11;4.80;99.90
18173;DHT22;9211;48.818;9.312;2023-12-07T15:42:38;4.70;99.90
18173;DHT22;9211;48.818;9.312;2023-12-07T15:45:07;4.60;99.90
18173;DHT22;9211;48.818;9.312;2023-12-07T15:47:35;4.50;99.90
18173;DHT22;9211;48.818;9.312;2023-12-07T15:50:02;4.40;99.90
18173;DHT22;9211;48.818;9.312;2023-12-07T15:52:29;4.30;99.90
18173;DHT22;9211;48.818;9.312;2023-12-07T15:54:56;4.20;99.90
18173;DHT22;9211;48.818;9.312;2023-12-07T15:57:23;4.30;99.90
18173;DHT22;9211;48.818;9.312;2023-12-07T15:59:50;4.30;99.90
18173;DHT22;9211;48.818;9.312;2023-12-07T16:02:19;4.30;99.90
18173;DHT22;9211;48.818;9.312;2023-12-07T16:04:46;4.20;99.90
18173;DHT22;9211;48.818;9.312;2023-12-07T16:07:13;4.70;99.90